Kezdőlap
METAR-TAF:

METAR-TAF

Repülőterek :

Tasiujaq, Québec, Kanada

földrajzi szélesség: 58-40N, földrajzi hosszúság: 069-57W, magasság: 31 m

Jelenlegi meteorológiai megfigyelések

A jelentés 13 órával és 3 perccel ezelõtt készült, 22:00 UTC
Délnyugati szél 23 kt széllökések: 28 kt
Hőmérséklet -24°C
Páratartalom 63%
Légköri nyomás 1015 hPa
Látótávolság: 19.3 km
Szórványos felhőzet 4000 lábon

METAR: CYTQ 122200Z 22023G28KT 12SM SCT040 M24/M29 A2998 RMK SC4 LAST STFD OBS NEXT/131300 UTC SLP160

Idő: 06:03 (11:03 UTC)

Előrejelzés

A jelentés 13 órával és 47 perccel ezelõtt készült, 21:16 UTC
Az előrejelzés 12-én 21 óra UTC és 12-én 22 óra UTC között érvényes
Délnyugati szél 15 kt széllökések: 25 kt
Látótávolság: 10 km
Kevés felhő 2000 lábon
Szórványos felhőzet 4000 lábon

TAF: CYTQ 122116Z 1221/1222 22015G25KT P6SM FEW020 SCT040 RMK NXT FCST WILL BE ISSUED AT 131445Z

Meteorológiai megfigyelések és előrejelzések több, mint 4000 repülőtéren (METAR és TAF jelentéseket).

A térképen piros és sárga pontok jelzik az elérhető meteorológiai állomásokat.

Mozgassa az egeret a pont fölött, hogy megjelenjen az állomás neve.

Azután kattintson az időjárási megfigyelések és előrejelzések megtekintéséhez.

A térkép megváltoztatása: kattintson a fekete keresztel jelölt zöld gombra ráközelítéshez, a vonallal jelölt zöld gombra távolításhoz, vagy a zöld nyilakra a szomszédos térképek eléréséhez.


METAR-TAF: